TimeCST,TemperatureF,Dew PointF,Humidity,Sea Level PressureIn,VisibilityMPH,Wind Direction,Wind SpeedMPH,Gust SpeedMPH,PrecipitationIn,Events,Conditions,WindDirDegrees,DateUTC
12:52 AM,23.0,12.0,63,30.49,10.0,SSW,11.5,-,N/A,,Clear,210,2013-11-13 06:52:00
1:52 AM,25.0,12.0,58,30.46,10.0,SSW,17.3,-,N/A,,Clear,210,2013-11-13 07:52:00
2:52 AM,25.0,12.9,60,30.42,10.0,SSW,16.1,-,N/A,,Clear,210,2013-11-13 08:52:00
3:52 AM,25.0,14.0,63,30.38,10.0,SSW,16.1,-,N/A,,Clear,210,2013-11-13 09:52:00
4:52 AM,26.1,15.1,63,30.33,10.0,SSW,17.3,-,N/A,,Clear,200,2013-11-13 10:52:00
5:52 AM,27.0,16.0,63,30.30,10.0,SSW,19.6,26.5,N/A,,Clear,210,2013-11-13 11:52:00
6:52 AM,28.0,17.1,63,30.27,10.0,SSW,19.6,27.6,N/A,,Clear,210,2013-11-13 12:52:00
7:52 AM,28.0,17.1,63,30.26,10.0,SSW,19.6,-,N/A,,Clear,210,2013-11-13 13:52:00
8:52 AM,32.0,21.0,64,30.22,10.0,SSW,20.7,31.1,N/A,,Clear,210,2013-11-13 14:52:00
9:52 AM,37.0,24.1,59,30.19,10.0,SW,20.7,-,N/A,,Clear,220,2013-11-13 15:52:00
10:52 AM,44.1,28.9,55,30.15,10.0,SW,26.5,38.0,N/A,,Clear,220,2013-11-13 16:52:00
11:52 AM,48.9,30.9,50,30.11,10.0,SW,20.7,31.1,N/A,,Clear,220,2013-11-13 17:52:00
12:52 PM,53.1,33.1,47,30.08,10.0,SW,23.0,31.1,N/A,,Clear,220,2013-11-13 18:52:00
1:52 PM,54.0,30.9,41,30.03,10.0,SW,21.9,33.4,N/A,,Clear,220,2013-11-13 19:52:00
2:52 PM,54.0,30.9,41,30.01,10.0,SSW,26.5,33.4,N/A,,Clear,210,2013-11-13 20:52:00
3:52 PM,52.0,32.0,47,30.03,10.0,SW,17.3,-,N/A,,Clear,230,2013-11-13 21:52:00
4:52 PM,46.9,30.0,52,30.02,10.0,SSW,12.7,-,N/A,,Clear,200,2013-11-13 22:52:00
5:52 PM,44.1,30.0,58,30.02,10.0,SSW,12.7,-,N/A,,Clear,210,2013-11-13 23:52:00
6:52 PM,41.0,28.9,62,30.01,10.0,SSW,15.0,-,N/A,,Clear,200,2013-11-14 00:52:00
7:52 PM,39.9,28.9,65,30.00,10.0,SSW,17.3,-,N/A,,Clear,200,2013-11-14 01:52:00
8:52 PM,41.0,28.9,62,29.98,10.0,SSW,17.3,-,N/A,,Clear,200,2013-11-14 02:52:00
9:52 PM,37.9,28.0,68,29.95,10.0,South,16.1,-,N/A,,Clear,190,2013-11-14 03:52:00
10:52 PM,37.0,28.0,70,29.95,10.0,SSW,10.4,-,N/A,,Clear,200,2013-11-14 04:52:00
11:52 PM,35.1,28.0,76,29.93,10.0,SSW,9.2,-,N/A,,Clear,200,2013-11-14 05:52:00